sensor_id;sensor_type;location;lat;lon;timestamp;pressure;altitude;pressure_sealevel;temperature;humidity
57068;BME280;43391;47.448;18.904;2022-10-16T00:01:18;100189.66;;;12.74;90.43
57068;BME280;43391;47.448;18.904;2022-10-16T00:03:45;100185.47;;;12.72;90.44
57068;BME280;43391;47.448;18.904;2022-10-16T00:06:12;100182.91;;;12.70;90.56
57068;BME280;43391;47.448;18.904;2022-10-16T00:08:38;100183.09;;;12.67;90.56
57068;BME280;43391;47.448;18.904;2022-10-16T00:11:10;100176.28;;;12.65;90.57
57068;BME280;43391;47.448;18.904;2022-10-16T00:13:37;100178.03;;;12.64;90.65
57068;BME280;43391;47.448;18.904;2022-10-16T00:16:04;100177.34;;;12.60;90.72
57068;BME280;43391;47.448;18.904;2022-10-16T00:18:30;100177.47;;;12.57;90.87
57068;BME280;43391;47.448;18.904;2022-10-16T00:21:00;100181.25;;;12.52;90.77
57068;BME280;43391;47.448;18.904;2022-10-16T00:23:26;100189.28;;;12.47;90.80
57068;BME280;43391;47.448;18.904;2022-10-16T00:25:56;100189.56;;;12.41;91.40
57068;BME280;43391;47.448;18.904;2022-10-16T00:28:22;100193.31;;;12.35;91.68
57068;BME280;43391;47.448;18.904;2022-10-16T00:30:47;100196.00;;;12.33;91.30
57068;BME280;43391;47.448;18.904;2022-10-16T00:33:13;100204.25;;;12.24;91.84
57068;BME280;43391;47.448;18.904;2022-10-16T00:35:38;100204.31;;;12.22;92.11
57068;BME280;43391;47.448;18.904;2022-10-16T00:38:03;100212.50;;;12.15;92.54
57068;BME280;43391;47.448;18.904;2022-10-16T00:40:29;100201.53;;;12.08;92.51
57068;BME280;43391;47.448;18.904;2022-10-16T00:42:54;100205.13;;;12.05;92.26
57068;BME280;43391;47.448;18.904;2022-10-16T00:45:20;100206.88;;;12.05;91.61
57068;BME280;43391;47.448;18.904;2022-10-16T00:47:46;100202.56;;;12.04;91.27
57068;BME280;43391;47.448;18.904;2022-10-16T00:50:35;100205.31;;;12.01;91.42
57068;BME280;43391;47.448;18.904;2022-10-16T00:53:01;100205.31;;;12.01;90.92
57068;BME280;43391;47.448;18.904;2022-10-16T00:55:27;100211.38;;;12.01;90.84
57068;BME280;43391;47.448;18.904;2022-10-16T00:57:56;100209.66;;;12.00;90.70
57068;BME280;43391;47.448;18.904;2022-10-16T01:00:25;100211.38;;;12.01;90.88
57068;BME280;43391;47.448;18.904;2022-10-16T01:02:58;100221.91;;;11.98;90.88
57068;BME280;43391;47.448;18.904;2022-10-16T01:05:43;100220.41;;;11.92;91.08
57068;BME280;43391;47.448;18.904;2022-10-16T01:08:16;100225.00;;;11.87;91.42
57068;BME280;43391;47.448;18.904;2022-10-16T01:10:52;100224.34;;;11.82;91.46
57068;BME280;43391;47.448;18.904;2022-10-16T01:13:32;100228.78;;;11.80;92.27
57068;BME280;43391;47.448;18.904;2022-10-16T01:21:03;100227.53;;;11.69;92.05
57068;BME280;43391;47.448;18.904;2022-10-16T01:29:07;100235.31;;;11.50;92.53
57068;BME280;43391;47.448;18.904;2022-10-16T01:31:39;100229.47;;;11.45;92.64
57068;BME280;43391;47.448;18.904;2022-10-16T01:34:18;100234.72;;;11.43;92.74
57068;BME280;43391;47.448;18.904;2022-10-16T01:36:50;100229.75;;;11.39;92.42
57068;BME280;43391;47.448;18.904;2022-10-16T01:39:21;100234.09;;;11.38;92.87
57068;BME280;43391;47.448;18.904;2022-10-16T01:41:54;100230.06;;;11.31;93.40
57068;BME280;43391;47.448;18.904;2022-10-16T01:44:24;100234.63;;;11.26;93.59
57068;BME280;43391;47.448;18.904;2022-10-16T01:46:52;100232.16;;;11.23;93.42
57068;BME280;43391;47.448;18.904;2022-10-16T01:49:21;100226.25;;;11.19;93.41
57068;BME280;43391;47.448;18.904;2022-10-16T01:51:48;100239.50;;;11.13;93.60
57068;BME280;43391;47.448;18.904;2022-10-16T01:54:16;100238.97;;;11.05;94.37
57068;BME280;43391;47.448;18.904;2022-10-16T01:56:44;100243.53;;;10.99;94.52
57068;BME280;43391;47.448;18.904;2022-10-16T01:59:12;100245.47;;;10.94;94.54
57068;BME280;43391;47.448;18.904;2022-10-16T02:01:42;100241.25;;;10.92;94.84
57068;BME280;43391;47.448;18.904;2022-10-16T02:04:22;100250.00;;;10.89;94.73
57068;BME280;43391;47.448;18.904;2022-10-16T02:06:49;100248.44;;;10.85;95.31
57068;BME280;43391;47.448;18.904;2022-10-16T02:09:15;100256.31;;;10.83;94.80
57068;BME280;43391;47.448;18.904;2022-10-16T02:11:42;100252.91;;;10.81;95.09
57068;BME280;43391;47.448;18.904;2022-10-16T02:14:08;100254.75;;;10.79;94.69
57068;BME280;43391;47.448;18.904;2022-10-16T02:16:45;100260.59;;;10.84;94.44
57068;BME280;43391;47.448;18.904;2022-10-16T02:19:12;100256.53;;;10.77;94.53
57068;BME280;43391;47.448;18.904;2022-10-16T02:26:46;100249.81;;;10.73;93.96
57068;BME280;43391;47.448;18.904;2022-10-16T02:29:17;100253.28;;;10.72;94.12
57068;BME280;43391;47.448;18.904;2022-10-16T02:31:48;100254.09;;;10.74;94.06
57068;BME280;43391;47.448;18.904;2022-10-16T02:34:16;100256.69;;;10.74;93.94
57068;BME280;43391;47.448;18.904;2022-10-16T02:36:44;100271.72;;;10.66;94.69
57068;BME280;43391;47.448;18.904;2022-10-16T02:39:11;100268.66;;;10.56;94.93
57068;BME280;43391;47.448;18.904;2022-10-16T02:41:37;100275.06;;;10.47;95.56
57068;BME280;43391;47.448;18.904;2022-10-16T02:44:02;100273.50;;;10.41;96.03
57068;BME280;43391;47.448;18.904;2022-10-16T02:46:28;100278.94;;;10.35;96.02
57068;BME280;43391;47.448;18.904;2022-10-16T02:48:53;100276.69;;;10.26;96.30
57068;BME280;43391;47.448;18.904;2022-10-16T02:51:18;100271.94;;;10.15;97.07
57068;BME280;43391;47.448;18.904;2022-10-16T02:53:44;100273.19;;;10.04;97.55
57068;BME280;43391;47.448;18.904;2022-10-16T02:56:09;100275.16;;;9.97;98.21
57068;BME280;43391;47.448;18.904;2022-10-16T02:58:34;100271.03;;;9.92;98.54
57068;BME280;43391;47.448;18.904;2022-10-16T03:01:00;100267.75;;;9.87;99.16
57068;BME280;43391;47.448;18.904;2022-10-16T03:03:25;100272.16;;;9.84;99.59
57068;BME280;43391;47.448;18.904;2022-10-16T03:05:50;100274.03;;;9.81;99.75
57068;BME280;43391;47.448;18.904;2022-10-16T03:08:16;100277.63;;;9.77;100.00
57068;BME280;43391;47.448;18.904;2022-10-16T03:10:41;100275.31;;;9.69;100.00
57068;BME280;43391;47.448;18.904;2022-10-16T03:13:06;100279.88;;;9.62;100.00
57068;BME280;43391;47.448;18.904;2022-10-16T03:15:32;100283.53;;;9.56;100.00
57068;BME280;43391;47.448;18.904;2022-10-16T03:17:58;100282.78;;;9.53;100.00
57068;BME280;43391;47.448;18.904;2022-10-16T03:20:24;100287.34;;;9.46;100.00
57068;BME280;43391;47.448;18.904;2022-10-16T03:22:50;100294.44;;;9.41;100.00
57068;BME280;43391;47.448;18.904;2022-10-16T03:25:15;100292.88;;;9.35;100.00
57068;BME280;43391;47.448;18.904;2022-10-16T03:27:40;100295.44;;;9.37;100.00
57068;BME280;43391;47.448;18.904;2022-10-16T03:30:06;100293.16;;;9.27;100.00
57068;BME280;43391;47.448;18.904;2022-10-16T03:32:32;100304.75;;;9.15;100.00
57068;BME280;43391;47.448;18.904;2022-10-16T03:34:58;100301.34;;;9.15;100.00
57068;BME280;43391;47.448;18.904;2022-10-16T03:37:23;100299.00;;;9.07;100.00
57068;BME280;43391;47.448;18.904;2022-10-16T03:39:49;100301.84;;;8.99;100.00
57068;BME280;43391;47.448;18.904;2022-10-16T03:42:14;100306.28;;;8.96;100.00
57068;BME280;43391;47.448;18.904;2022-10-16T03:44:39;100302.78;;;8.97;100.00
57068;BME280;43391;47.448;18.904;2022-10-16T03:47:05;100314.94;;;8.95;100.00
57068;BME280;43391;47.448;18.904;2022-10-16T03:49:30;100303.81;;;8.91;100.00
57068;BME280;43391;47.448;18.904;2022-10-16T03:51:55;100307.28;;;8.92;100.00
57068;BME280;43391;47.448;18.904;2022-10-16T03:54:21;100318.41;;;8.94;100.00
57068;BME280;43391;47.448;18.904;2022-10-16T03:56:47;100311.63;;;8.89;100.00
57068;BME280;43391;47.448;18.904;2022-10-16T03:59:13;100316.94;;;8.86;100.00
57068;BME280;43391;47.448;18.904;2022-10-16T04:01:38;100327.38;;;8.83;100.00
57068;BME280;43391;47.448;18.904;2022-10-16T04:04:03;100324.97;;;8.77;100.00
57068;BME280;43391;47.448;18.904;2022-10-16T04:06:29;100320.84;;;8.71;100.00
57068;BME280;43391;47.448;18.904;2022-10-16T04:08:54;100328.94;;;8.60;100.00
57068;BME280;43391;47.448;18.904;2022-10-16T04:11:19;100332.63;;;8.51;100.00
57068;BME280;43391;47.448;18.904;2022-10-16T04:13:45;100340.50;;;8.47;100.00
57068;BME280;43391;47.448;18.904;2022-10-16T04:16:10;100332.91;;;8.42;100.00
57068;BME280;43391;47.448;18.904;2022-10-16T04:18:35;100329.44;;;8.42;100.00
57068;BME280;43391;47.448;18.904;2022-10-16T04:21:05;100329.59;;;8.37;100.00
57068;BME280;43391;47.448;18.904;2022-10-16T04:23:30;100332.38;;;8.31;100.00
57068;BME280;43391;47.448;18.904;2022-10-16T04:25:56;100330.81;;;8.25;100.00
57068;BME280;43391;47.448;18.904;2022-10-16T04:28:21;100336.09;;;8.22;100.00
57068;BME280;43391;47.448;18.904;2022-10-16T04:30:46;100326.03;;;8.11;100.00
57068;BME280;43391;47.448;18.904;2022-10-16T04:33:12;100331.38;;;8.05;100.00
57068;BME280;43391;47.448;18.904;2022-10-16T04:35:38;100334.91;;;8.02;100.00
57068;BME280;43391;47.448;18.904;2022-10-16T04:38:03;100328.88;;;8.02;100.00
57068;BME280;43391;47.448;18.904;2022-10-16T04:40:29;100332.50;;;7.96;100.00
57068;BME280;43391;47.448;18.904;2022-10-16T04:42:58;100331.72;;;7.92;100.00
57068;BME280;43391;47.448;18.904;2022-10-16T04:45:24;100332.75;;;7.87;100.00
57068;BME280;43391;47.448;18.904;2022-10-16T04:47:49;100337.97;;;7.83;100.00
57068;BME280;43391;47.448;18.904;2022-10-16T04:50:15;100337.94;;;7.85;100.00
57068;BME280;43391;47.448;18.904;2022-10-16T04:52:40;100337.97;;;7.83;100.00
57068;BME280;43391;47.448;18.904;2022-10-16T04:55:06;100339.63;;;7.86;100.00
57068;BME280;43391;47.448;18.904;2022-10-16T04:57:32;100333.56;;;7.87;100.00
57068;BME280;43391;47.448;18.904;2022-10-16T04:59:58;100340.56;;;7.83;100.00
57068;BME280;43391;47.448;18.904;2022-10-16T05:02:24;100339.66;;;7.84;100.00
57068;BME280;43391;47.448;18.904;2022-10-16T05:04:50;100337.09;;;7.84;100.00
57068;BME280;43391;47.448;18.904;2022-10-16T05:07:15;100340.53;;;7.85;100.00
57068;BME280;43391;47.448;18.904;2022-10-16T05:09:41;100337.06;;;7.86;100.00
57068;BME280;43391;47.448;18.904;2022-10-16T05:12:06;100341.22;;;7.92;100.00
57068;BME280;43391;47.448;18.904;2022-10-16T05:14:31;100344.69;;;7.91;100.00
57068;BME280;43391;47.448;18.904;2022-10-16T05:16:57;100344.75;;;7.89;100.00
57068;BME280;43391;47.448;18.904;2022-10-16T05:19:22;100352.56;;;7.86;100.00
57068;BME280;43391;47.448;18.904;2022-10-16T05:21:47;100357.66;;;7.89;100.00
57068;BME280;43391;47.448;18.904;2022-10-16T05:24:13;100353.28;;;7.91;100.00
57068;BME280;43391;47.448;18.904;2022-10-16T05:26:39;100355.81;;;7.94;100.00
57068;BME280;43391;47.448;18.904;2022-10-16T05:29:04;100354.03;;;7.95;100.00
57068;BME280;43391;47.448;18.904;2022-10-16T05:31:29;100362.69;;;7.94;100.00
57068;BME280;43391;47.448;18.904;2022-10-16T05:34:02;100362.69;;;7.94;100.00
57068;BME280;43391;47.448;18.904;2022-10-16T05:36:27;100357.50;;;7.95;100.00
57068;BME280;43391;47.448;18.904;2022-10-16T05:38:53;100363.38;;;8.01;100.00
57068;BME280;43391;47.448;18.904;2022-10-16T05:41:19;100364.97;;;8.06;100.00
57068;BME280;43391;47.448;18.904;2022-10-16T05:43:48;100371.81;;;8.07;100.00
57068;BME280;43391;47.448;18.904;2022-10-16T05:46:15;100368.31;;;8.10;100.00
57068;BME280;43391;47.448;18.904;2022-10-16T05:48:40;100380.19;;;8.16;100.00
57068;BME280;43391;47.448;18.904;2022-10-16T05:51:08;100379.06;;;8.26;100.00
57068;BME280;43391;47.448;18.904;2022-10-16T05:53:35;100385.81;;;8.32;100.00
57068;BME280;43391;47.448;18.904;2022-10-16T05:56:02;100379.50;;;8.41;100.00
57068;BME280;43391;47.448;18.904;2022-10-16T05:58:32;100380.88;;;8.54;100.00
57068;BME280;43391;47.448;18.904;2022-10-16T06:01:01;100382.16;;;8.69;100.00
57068;BME280;43391;47.448;18.904;2022-10-16T06:03:27;100381.78;;;8.82;100.00
57068;BME280;43391;47.448;18.904;2022-10-16T06:05:52;100397.94;;;8.90;100.00
57068;BME280;43391;47.448;18.904;2022-10-16T06:08:20;100404.72;;;8.94;100.00
57068;BME280;43391;47.448;18.904;2022-10-16T06:10:47;100404.75;;;8.93;100.00
57068;BME280;43391;47.448;18.904;2022-10-16T06:13:14;100408.84;;;9.00;100.00
57068;BME280;43391;47.448;18.904;2022-10-16T06:15:41;100410.00;;;9.18;100.00
57068;BME280;43391;47.448;18.904;2022-10-16T06:18:10;100409.47;;;9.35;100.00
57068;BME280;43391;47.448;18.904;2022-10-16T06:20:36;100408.97;;;9.51;100.00
57068;BME280;43391;47.448;18.904;2022-10-16T06:23:02;100418.06;;;9.64;100.00
57068;BME280;43391;47.448;18.904;2022-10-16T06:25:29;100419.38;;;9.76;100.00
57068;BME280;43391;47.448;18.904;2022-10-16T06:27:55;100432.84;;;9.88;100.00
57068;BME280;43391;47.448;18.904;2022-10-16T06:30:20;100431.72;;;9.95;100.00
57068;BME280;43391;47.448;18.904;2022-10-16T06:32:45;100428.63;;;10.09;100.00
57068;BME280;43391;47.448;18.904;2022-10-16T06:35:11;100431.75;;;10.19;99.26
57068;BME280;43391;47.448;18.904;2022-10-16T06:37:36;100433.09;;;10.29;97.95
57068;BME280;43391;47.448;18.904;2022-10-16T06:40:01;100429.94;;;10.46;97.04
57068;BME280;43391;47.448;18.904;2022-10-16T06:42:29;100437.22;;;10.60;96.04
57068;BME280;43391;47.448;18.904;2022-10-16T06:44:54;100443.75;;;10.71;95.62
57068;BME280;43391;47.448;18.904;2022-10-16T06:47:20;100451.25;;;10.79;94.65
57068;BME280;43391;47.448;18.904;2022-10-16T06:49:45;100460.56;;;10.84;94.08
57068;BME280;43391;47.448;18.904;2022-10-16T06:52:10;100468.19;;;10.89;93.33
57068;BME280;43391;47.448;18.904;2022-10-16T06:54:36;100467.91;;;10.97;92.46
57068;BME280;43391;47.448;18.904;2022-10-16T06:57:01;100471.00;;;11.07;91.39
57068;BME280;43391;47.448;18.904;2022-10-16T06:59:27;100466.34;;;11.15;91.91
57068;BME280;43391;47.448;18.904;2022-10-16T07:01:52;100468.69;;;11.21;91.62
57068;BME280;43391;47.448;18.904;2022-10-16T07:04:17;100466.69;;;11.28;90.35
57068;BME280;43391;47.448;18.904;2022-10-16T07:06:43;100467.19;;;11.38;90.85
57068;BME280;43391;47.448;18.904;2022-10-16T07:09:09;100479.16;;;11.42;89.59
57068;BME280;43391;47.448;18.904;2022-10-16T07:11:37;100486.84;;;11.45;90.52
57068;BME280;43391;47.448;18.904;2022-10-16T07:14:03;100491.88;;;11.48;89.55
57068;BME280;43391;47.448;18.904;2022-10-16T07:16:31;100486.28;;;11.59;87.95
57068;BME280;43391;47.448;18.904;2022-10-16T07:18:58;100488.25;;;11.75;87.93
57068;BME280;43391;47.448;18.904;2022-10-16T07:21:26;100493.06;;;11.84;87.24
57068;BME280;43391;47.448;18.904;2022-10-16T07:23:53;100500.56;;;11.92;86.94
57068;BME280;43391;47.448;18.904;2022-10-16T07:26:18;100493.47;;;11.95;83.19
57068;BME280;43391;47.448;18.904;2022-10-16T07:28:44;100486.31;;;12.01;82.74
57068;BME280;43391;47.448;18.904;2022-10-16T07:31:13;100485.16;;;12.08;82.59
57068;BME280;43391;47.448;18.904;2022-10-16T07:33:40;100489.06;;;12.18;82.78
57068;BME280;43391;47.448;18.904;2022-10-16T07:36:07;100487.97;;;12.24;81.40
57068;BME280;43391;47.448;18.904;2022-10-16T07:38:32;100484.97;;;12.33;82.92
57068;BME280;43391;47.448;18.904;2022-10-16T07:41:01;100495.94;;;12.40;82.94
57068;BME280;43391;47.448;18.904;2022-10-16T07:43:28;100501.59;;;12.50;81.90
57068;BME280;43391;47.448;18.904;2022-10-16T07:45:54;100494.44;;;12.55;80.84
57068;BME280;43391;47.448;18.904;2022-10-16T07:48:21;100498.38;;;12.64;80.61
57068;BME280;43391;47.448;18.904;2022-10-16T07:50:47;100502.38;;;12.71;80.57
57068;BME280;43391;47.448;18.904;2022-10-16T07:53:13;100503.94;;;12.75;79.93
57068;BME280;43391;47.448;18.904;2022-10-16T07:55:39;100518.41;;;12.83;79.44
57068;BME280;43391;47.448;18.904;2022-10-16T07:58:05;100519.88;;;12.88;80.29
57068;BME280;43391;47.448;18.904;2022-10-16T08:00:31;100518.06;;;12.91;78.77
57068;BME280;43391;47.448;18.904;2022-10-16T08:02:57;100519.59;;;12.95;78.34
57068;BME280;43391;47.448;18.904;2022-10-16T08:05:29;100524.44;;;13.02;78.02
57068;BME280;43391;47.448;18.904;2022-10-16T08:07:55;100523.41;;;13.07;79.19
57068;BME280;43391;47.448;18.904;2022-10-16T08:10:23;100538.69;;;13.14;79.27
57068;BME280;43391;47.448;18.904;2022-10-16T08:12:50;100537.47;;;13.22;78.13
57068;BME280;43391;47.448;18.904;2022-10-16T08:15:15;100539.53;;;13.34;78.26
57068;BME280;43391;47.448;18.904;2022-10-16T08:17:40;100538.16;;;13.45;77.62
57068;BME280;43391;47.448;18.904;2022-10-16T08:20:06;100548.97;;;13.56;77.39
57068;BME280;43391;47.448;18.904;2022-10-16T08:22:32;100545.69;;;13.70;77.31
57068;BME280;43391;47.448;18.904;2022-10-16T08:24:57;100557.06;;;13.87;77.60
57068;BME280;43391;47.448;18.904;2022-10-16T08:27:23;100549.53;;;13.98;74.39
57068;BME280;43391;47.448;18.904;2022-10-16T08:29:48;100550.25;;;14.02;74.43
57068;BME280;43391;47.448;18.904;2022-10-16T08:32:14;100549.69;;;14.13;76.05
57068;BME280;43391;47.448;18.904;2022-10-16T08:34:39;100553.59;;;14.21;73.23
57068;BME280;43391;47.448;18.904;2022-10-16T08:37:05;100549.09;;;14.25;73.81
57068;BME280;43391;47.448;18.904;2022-10-16T08:39:32;100556.53;;;14.33;73.57
57068;BME280;43391;47.448;18.904;2022-10-16T08:42:22;100555.22;;;14.42;72.64
57068;BME280;43391;47.448;18.904;2022-10-16T08:48:04;100559.16;;;14.67;72.92
57068;BME280;43391;47.448;18.904;2022-10-16T08:50:36;100553.47;;;14.76;72.76
57068;BME280;43391;47.448;18.904;2022-10-16T08:53:04;100560.75;;;14.87;72.15
57068;BME280;43391;47.448;18.904;2022-10-16T08:55:43;100568.25;;;14.93;70.78
57068;BME280;43391;47.448;18.904;2022-10-16T09:00:38;100568.91;;;15.14;69.72
57068;BME280;43391;47.448;18.904;2022-10-16T09:03:14;100570.81;;;15.27;69.52
57068;BME280;43391;47.448;18.904;2022-10-16T09:05:52;100566.78;;;15.37;69.16
57068;BME280;43391;47.448;18.904;2022-10-16T09:13:48;100582.44;;;15.70;67.51
57068;BME280;43391;47.448;18.904;2022-10-16T09:16:37;100587.69;;;15.70;67.75
57068;BME280;43391;47.448;18.904;2022-10-16T09:19:15;100575.03;;;15.78;68.26
57068;BME280;43391;47.448;18.904;2022-10-16T09:21:45;100574.91;;;15.96;67.58
57068;BME280;43391;47.448;18.904;2022-10-16T09:24:14;100573.63;;;16.03;67.01
57068;BME280;43391;47.448;18.904;2022-10-16T09:26:42;100570.84;;;16.06;66.51
57068;BME280;43391;47.448;18.904;2022-10-16T09:29:11;100574.41;;;16.19;66.59
57068;BME280;43391;47.448;18.904;2022-10-16T09:31:37;100579.59;;;16.36;67.52
57068;BME280;43391;47.448;18.904;2022-10-16T09:34:03;100572.69;;;16.49;65.43
57068;BME280;43391;47.448;18.904;2022-10-16T09:36:41;100576.72;;;16.55;65.20
57068;BME280;43391;47.448;18.904;2022-10-16T09:39:09;100579.91;;;16.60;66.39
57068;BME280;43391;47.448;18.904;2022-10-16T09:41:38;100570.47;;;16.72;65.52
57068;BME280;43391;47.448;18.904;2022-10-16T09:44:16;100570.81;;;16.80;64.91
57068;BME280;43391;47.448;18.904;2022-10-16T09:46:42;100580.75;;;16.90;64.03
57068;BME280;43391;47.448;18.904;2022-10-16T09:51:45;100596.50;;;17.19;63.13
57068;BME280;43391;47.448;18.904;2022-10-16T09:54:16;100594.50;;;17.37;63.20
57068;BME280;43391;47.448;18.904;2022-10-16T09:56:42;100595.53;;;17.62;61.87
57068;BME280;43391;47.448;18.904;2022-10-16T10:01:37;100593.34;;;17.69;63.04
57068;BME280;43391;47.448;18.904;2022-10-16T10:04:04;100602.13;;;17.82;62.81
57068;BME280;43391;47.448;18.904;2022-10-16T10:06:33;100592.31;;;17.99;60.51
57068;BME280;43391;47.448;18.904;2022-10-16T10:11:56;100583.88;;;18.21;60.76
57068;BME280;43391;47.448;18.904;2022-10-16T10:14:31;100580.06;;;18.25;59.23
57068;BME280;43391;47.448;18.904;2022-10-16T10:19:29;100571.47;;;18.36;58.95
57068;BME280;43391;47.448;18.904;2022-10-16T10:21:55;100574.09;;;18.36;58.67
57068;BME280;43391;47.448;18.904;2022-10-16T10:24:20;100574.63;;;18.41;58.97
57068;BME280;43391;47.448;18.904;2022-10-16T10:26:54;100571.91;;;18.56;59.40
57068;BME280;43391;47.448;18.904;2022-10-16T10:30:01;100571.38;;;18.77;58.04
57068;BME280;43391;47.448;18.904;2022-10-16T10:32:36;100565.66;;;18.96;58.30
57068;BME280;43391;47.448;18.904;2022-10-16T10:35:15;100564.34;;;19.15;56.36
57068;BME280;43391;47.448;18.904;2022-10-16T10:37:47;100567.28;;;19.23;56.06
57068;BME280;43391;47.448;18.904;2022-10-16T10:40:43;100569.16;;;19.34;55.61
57068;BME280;43391;47.448;18.904;2022-10-16T10:43:25;100565.84;;;19.43;55.45
57068;BME280;43391;47.448;18.904;2022-10-16T10:45:59;100566.28;;;19.61;56.11
57068;BME280;43391;47.448;18.904;2022-10-16T10:51:32;100572.25;;;19.76;54.58
57068;BME280;43391;47.448;18.904;2022-10-16T10:54:25;100568.31;;;19.94;54.40
57068;BME280;43391;47.448;18.904;2022-10-16T11:08:06;100565.84;;;20.39;52.12
57068;BME280;43391;47.448;18.904;2022-10-16T11:13:20;100565.22;;;20.36;51.82
57068;BME280;43391;47.448;18.904;2022-10-16T11:15:48;100561.41;;;20.40;53.24
57068;BME280;43391;47.448;18.904;2022-10-16T11:18:21;100556.84;;;20.53;52.18
57068;BME280;43391;47.448;18.904;2022-10-16T11:21:03;100556.72;;;20.55;51.76
57068;BME280;43391;47.448;18.904;2022-10-16T11:26:13;100548.72;;;20.68;51.43
57068;BME280;43391;47.448;18.904;2022-10-16T11:28:51;100552.19;;;20.68;50.70
57068;BME280;43391;47.448;18.904;2022-10-16T11:36:46;100560.34;;;20.65;50.42
57068;BME280;43391;47.448;18.904;2022-10-16T11:39:19;100557.09;;;20.62;49.84
57068;BME280;43391;47.448;18.904;2022-10-16T11:41:49;100554.34;;;20.63;50.48
57068;BME280;43391;47.448;18.904;2022-10-16T11:47:12;100558.66;;;20.64;50.74
57068;BME280;43391;47.448;18.904;2022-10-16T11:49:42;100554.22;;;20.65;51.01
57068;BME280;43391;47.448;18.904;2022-10-16T11:52:24;100556.13;;;20.63;51.07
57068;BME280;43391;47.448;18.904;2022-10-16T11:54:59;100556.59;;;20.79;50.93
57068;BME280;43391;47.448;18.904;2022-10-16T11:57:29;100551.81;;;20.84;49.55
57068;BME280;43391;47.448;18.904;2022-10-16T12:00:02;100544.97;;;20.82;49.67
57068;BME280;43391;47.448;18.904;2022-10-16T12:02:40;100547.41;;;20.74;48.73
57068;BME280;43391;47.448;18.904;2022-10-16T12:08:04;100541.63;;;20.57;49.90
57068;BME280;43391;47.448;18.904;2022-10-16T12:10:32;100541.50;;;20.47;50.46
57068;BME280;43391;47.448;18.904;2022-10-16T12:13:02;100538.38;;;20.42;50.79
57068;BME280;43391;47.448;18.904;2022-10-16T12:15:30;100540.16;;;20.30;51.96
57068;BME280;43391;47.448;18.904;2022-10-16T12:17:56;100535.63;;;20.21;52.67
57068;BME280;43391;47.448;18.904;2022-10-16T12:20:31;100535.75;;;20.19;51.69
57068;BME280;43391;47.448;18.904;2022-10-16T12:23:06;100528.53;;;20.21;51.84
57068;BME280;43391;47.448;18.904;2022-10-16T12:25:37;100531.91;;;20.23;51.28
57068;BME280;43391;47.448;18.904;2022-10-16T12:28:19;100527.00;;;20.30;51.29
57068;BME280;43391;47.448;18.904;2022-10-16T12:30:56;100529.19;;;20.36;51.76
57068;BME280;43391;47.448;18.904;2022-10-16T12:33:33;100532.28;;;20.41;50.90
57068;BME280;43391;47.448;18.904;2022-10-16T12:36:01;100531.81;;;20.36;51.00
57068;BME280;43391;47.448;18.904;2022-10-16T12:38:37;100533.97;;;20.31;51.04
57068;BME280;43391;47.448;18.904;2022-10-16T12:41:05;100527.47;;;20.24;51.28
57068;BME280;43391;47.448;18.904;2022-10-16T12:43:46;100529.00;;;20.15;51.47
57068;BME280;43391;47.448;18.904;2022-10-16T12:48:40;100527.34;;;20.14;52.38
57068;BME280;43391;47.448;18.904;2022-10-16T12:51:11;100527.09;;;20.17;52.46
57068;BME280;43391;47.448;18.904;2022-10-16T12:53:37;100527.81;;;20.08;52.83
57068;BME280;43391;47.448;18.904;2022-10-16T12:56:11;100531.63;;;20.03;52.55
57068;BME280;43391;47.448;18.904;2022-10-16T12:58:51;100537.88;;;20.02;53.14
57068;BME280;43391;47.448;18.904;2022-10-16T13:09:57;100539.16;;;19.97;51.95
57068;BME280;43391;47.448;18.904;2022-10-16T13:12:43;100537.56;;;19.94;52.59
57068;BME280;43391;47.448;18.904;2022-10-16T13:15:29;100540.91;;;19.96;52.65
57068;BME280;43391;47.448;18.904;2022-10-16T13:18:15;100549.53;;;19.87;53.02
57068;BME280;43391;47.448;18.904;2022-10-16T13:21:07;100547.31;;;19.81;53.06
57068;BME280;43391;47.448;18.904;2022-10-16T13:26:31;100546.13;;;19.73;54.60
57068;BME280;43391;47.448;18.904;2022-10-16T13:29:01;100547.06;;;19.72;53.63
57068;BME280;43391;47.448;18.904;2022-10-16T13:31:28;100554.59;;;19.65;53.31
57068;BME280;43391;47.448;18.904;2022-10-16T13:33:56;100544.41;;;19.61;53.25
57068;BME280;43391;47.448;18.904;2022-10-16T13:36:42;100549.88;;;19.58;54.92
57068;BME280;43391;47.448;18.904;2022-10-16T13:39:26;100551.69;;;19.57;52.40
57068;BME280;43391;47.448;18.904;2022-10-16T13:44:31;100543.00;;;19.44;53.30
57068;BME280;43391;47.448;18.904;2022-10-16T13:47:01;100543.41;;;19.50;54.04
57068;BME280;43391;47.448;18.904;2022-10-16T13:49:26;100550.22;;;19.53;54.63
57068;BME280;43391;47.448;18.904;2022-10-16T13:51:56;100558.44;;;19.48;54.72
57068;BME280;43391;47.448;18.904;2022-10-16T13:54:23;100557.53;;;19.49;54.50
57068;BME280;43391;47.448;18.904;2022-10-16T13:56:48;100560.00;;;19.51;54.15
57068;BME280;43391;47.448;18.904;2022-10-16T13:59:26;100560.38;;;19.46;54.12
57068;BME280;43391;47.448;18.904;2022-10-16T14:01:55;100559.75;;;19.43;54.27
57068;BME280;43391;47.448;18.904;2022-10-16T14:04:22;100562.50;;;19.41;54.82
57068;BME280;43391;47.448;18.904;2022-10-16T14:06:50;100564.78;;;19.46;54.53
57068;BME280;43391;47.448;18.904;2022-10-16T14:12:10;100561.06;;;19.24;54.75
57068;BME280;43391;47.448;18.904;2022-10-16T14:14:42;100564.66;;;19.23;54.39
57068;BME280;43391;47.448;18.904;2022-10-16T14:17:34;100555.19;;;19.20;55.07